グアム の空港の天気 - METARとTAF

グアム国際空港 ( PGUM / GUM ) - グアム ハガニア
飛行場実況気象(Metar)
観測時間06/18 04:54 ChST (06/17 18:54 UTC)
風向・風速東北東 3m/s
視程10km以上
天気現象
なし
気温26.7℃
湿度82%
気圧1010.3hPa
METARPGUM 171854Z 06005KT 10SM CLR 27/23 A2986 RMK AO2 SLP103 T02670233
過去の天気等 Google飛行場航空写真 Wunderground天気予報

過去48時間のMETAR

飛行場予報(TAF)
発表時間: 6/18 03:26 ChST (6/17 17:26 UTC)
予報対象時間: 18日4時 ChST ~ 19日10時 ChST
風向・風速東 5m/s
視程10km以上
天気現象周辺でしゅう雨
全天の4割程度の雲 雲底高度 610m
全天の4割程度の雲 雲底高度 1220m
PGUM 171726Z 1718/1824 08010KT P6SM VCSH SCT020 SCT040